createdAt,value
2019-03-05T00:00:32.141Z,4.00
2019-03-05T00:03:05.001Z,4.10
2019-03-05T00:05:38.053Z,4.10
2019-03-05T00:08:11.541Z,4.40
2019-03-05T00:10:44.586Z,4.10
2019-03-05T00:13:17.501Z,3.90
2019-03-05T00:15:51.701Z,4.00
2019-03-05T00:18:24.640Z,4.00
2019-03-05T00:20:57.521Z,3.90
2019-03-05T00:23:30.441Z,4.00
2019-03-05T00:26:03.192Z,4.00
2019-03-05T00:28:36.061Z,4.10
2019-03-05T00:31:09.902Z,4.00
2019-03-05T00:33:42.741Z,4.10
2019-03-05T00:36:16.021Z,4.10
2019-03-05T00:38:49.021Z,4.00
2019-03-05T00:41:22.182Z,4.00
2019-03-05T00:43:55.221Z,3.90
2019-03-05T00:46:28.361Z,3.90
2019-03-05T00:49:01.405Z,4.00
2019-03-05T00:51:34.341Z,3.90
2019-03-05T00:54:07.380Z,3.90
2019-03-05T00:56:40.424Z,4.00
2019-03-05T00:59:13.835Z,4.10
2019-03-05T01:01:46.849Z,3.90
2019-03-05T01:04:19.862Z,4.10
2019-03-05T01:06:53.104Z,3.90
2019-03-05T01:09:27.021Z,3.90
2019-03-05T01:11:59.881Z,3.90
2019-03-05T01:14:34.361Z,3.80
2019-03-05T01:17:07.252Z,3.60
2019-03-05T01:19:40.281Z,3.70
2019-03-05T01:22:13.540Z,3.60
2019-03-05T01:24:47.317Z,3.40
2019-03-05T01:27:20.301Z,3.50
2019-03-05T01:29:53.181Z,3.70
2019-03-05T01:32:39.481Z,3.80
2019-03-05T01:35:13.922Z,3.80
2019-03-05T01:37:47.001Z,3.80
2019-03-05T01:40:21.441Z,3.80
2019-03-05T01:42:54.444Z,3.70
2019-03-05T01:45:27.825Z,3.40
2019-03-05T01:48:00.781Z,3.40
2019-03-05T01:50:35.701Z,3.50
2019-03-05T01:53:08.560Z,3.20
2019-03-05T01:55:42.321Z,3.20
2019-03-05T01:58:15.464Z,3.20
2019-03-05T02:00:48.860Z,3.40
2019-03-05T02:03:22.121Z,3.30
2019-03-05T02:05:55.521Z,3.20
2019-03-05T02:08:28.461Z,3.10
2019-03-05T02:11:01.414Z,3.00
2019-03-05T02:13:34.543Z,3.10
2019-03-05T02:16:07.782Z,3.40
2019-03-05T02:18:40.762Z,3.50
2019-03-05T02:21:13.721Z,3.20
2019-03-05T02:23:46.599Z,3.10
2019-03-05T02:26:19.602Z,3.10
2019-03-05T02:28:52.521Z,3.20
2019-03-05T02:31:25.826Z,3.10
2019-03-05T02:33:58.644Z,3.00
2019-03-05T02:36:31.561Z,3.10
2019-03-05T02:39:05.101Z,3.10
2019-03-05T02:41:38.260Z,2.90
2019-03-05T02:44:11.222Z,3.20
2019-03-05T02:46:44.149Z,3.30
2019-03-05T02:49:17.653Z,3.00
2019-03-05T02:51:50.764Z,2.90
2019-03-05T02:54:23.745Z,3.10
2019-03-05T02:56:57.102Z,3.10
2019-03-05T02:59:30.097Z,3.00
2019-03-05T03:02:22.702Z,3.20
2019-03-05T03:05:00.440Z,3.40
2019-03-05T03:07:33.497Z,3.30
2019-03-05T03:10:07.042Z,3.20
2019-03-05T03:12:40.241Z,3.30
2019-03-05T03:15:13.261Z,3.30
2019-03-05T03:17:46.321Z,3.50
2019-03-05T03:20:19.951Z,3.30
2019-03-05T03:22:53.448Z,3.30
2019-03-05T03:25:26.701Z,3.30
2019-03-05T03:28:00.241Z,3.40
2019-03-05T03:30:33.110Z,3.50
2019-03-05T03:33:06.601Z,3.60
2019-03-05T03:35:39.486Z,3.50
2019-03-05T03:38:13.029Z,3.50
2019-03-05T03:40:45.900Z,3.60
2019-03-05T03:43:18.821Z,3.80
2019-03-05T03:45:52.044Z,3.80
2019-03-05T03:48:24.944Z,4.20
2019-03-05T03:50:57.885Z,4.20
2019-03-05T03:53:31.241Z,3.90
2019-03-05T03:56:04.081Z,3.70
2019-03-05T03:58:37.261Z,3.60
2019-03-05T04:01:10.321Z,3.60
2019-03-05T04:03:43.387Z,3.80
2019-03-05T04:06:16.447Z,3.60
2019-03-05T04:08:49.482Z,3.80
2019-03-05T04:11:22.398Z,3.80
2019-03-05T04:13:58.462Z,4.10
2019-03-05T04:16:30.968Z,3.70
2019-03-05T04:19:05.402Z,3.70
2019-03-05T04:21:38.241Z,3.60
2019-03-05T04:24:11.340Z,3.40
2019-03-05T04:26:44.871Z,3.20
2019-03-05T04:29:17.772Z,3.20
2019-03-05T04:31:50.625Z,3.40
2019-03-05T04:34:23.572Z,3.60
2019-03-05T04:36:56.781Z,3.50
2019-03-05T04:39:29.661Z,3.10
2019-03-05T04:42:02.521Z,2.90
2019-03-05T04:44:37.015Z,2.90
2019-03-05T04:47:10.043Z,2.90
2019-03-05T04:49:50.441Z,3.10
2019-03-05T04:52:24.340Z,3.20
2019-03-05T04:54:57.401Z,3.20
2019-03-05T04:57:30.281Z,3.20
2019-03-05T05:00:03.123Z,3.30
2019-03-05T05:02:36.141Z,3.50
2019-03-05T05:05:09.100Z,3.30
2019-03-05T05:07:41.941Z,3.20
2019-03-05T05:10:15.003Z,3.40
2019-03-05T05:12:48.161Z,3.70
2019-03-05T05:15:21.020Z,3.90
2019-03-05T05:17:53.984Z,4.00
2019-03-05T05:20:26.921Z,4.00
2019-03-05T05:22:59.841Z,3.60
2019-03-05T05:25:32.742Z,3.70
2019-03-05T05:28:05.801Z,3.70
2019-03-05T05:30:38.661Z,3.70
2019-03-05T05:33:11.464Z,3.70
2019-03-05T05:35:44.576Z,3.60
2019-03-05T05:38:17.434Z,3.70
2019-03-05T05:40:50.524Z,3.50
2019-03-05T05:43:23.600Z,3.50
2019-03-05T05:45:56.908Z,3.50
2019-03-05T05:48:29.861Z,3.60
2019-03-05T05:51:02.901Z,3.60
2019-03-05T05:53:35.742Z,3.60
2019-03-05T05:56:08.553Z,3.60
2019-03-05T05:58:41.581Z,3.60
2019-03-05T06:01:14.481Z,3.80
2019-03-05T06:03:47.739Z,3.80
2019-03-05T06:06:20.637Z,3.80
2019-03-05T06:08:53.549Z,3.90
2019-03-05T06:11:26.521Z,3.90
2019-03-05T06:13:59.446Z,3.90
2019-03-05T06:16:32.541Z,3.90
2019-03-05T06:19:05.382Z,3.90
2019-03-05T06:21:38.401Z,3.90
2019-03-05T06:24:11.301Z,4.00
2019-03-05T06:26:44.281Z,4.20
2019-03-05T06:29:17.996Z,4.30
2019-03-05T06:31:50.881Z,4.30
2019-03-05T06:34:24.000Z,4.30
2019-03-05T06:36:56.928Z,4.50
2019-03-05T06:39:30.060Z,4.40
2019-03-05T06:42:02.776Z,4.40
2019-03-05T06:44:36.421Z,4.40
2019-03-05T06:47:09.242Z,4.40
2019-03-05T06:49:42.141Z,4.40
2019-03-05T06:52:15.065Z,4.50
2019-03-05T06:54:48.241Z,4.40
2019-03-05T06:57:21.589Z,4.30
2019-03-05T06:59:54.700Z,4.30
2019-03-05T07:02:27.681Z,4.10
2019-03-05T07:05:00.761Z,4.00
2019-03-05T07:07:34.081Z,3.80
2019-03-05T07:10:07.221Z,3.80
2019-03-05T07:12:40.341Z,3.90
2019-03-05T07:15:13.581Z,3.90
2019-03-05T07:17:46.468Z,4.10
2019-03-05T07:20:19.641Z,4.20
2019-03-05T07:22:52.840Z,4.30
2019-03-05T07:25:25.701Z,4.70
2019-03-05T07:27:58.761Z,4.80
2019-03-05T07:30:31.742Z,4.90
2019-03-05T07:33:04.523Z,5.00
2019-03-05T07:35:37.481Z,4.90
2019-03-05T07:38:10.401Z,4.90
2019-03-05T07:40:43.284Z,4.80
2019-03-05T07:43:19.081Z,4.90
2019-03-05T07:45:52.624Z,5.00
2019-03-05T07:48:25.441Z,5.10
2019-03-05T07:50:58.620Z,5.10
2019-03-05T07:53:31.941Z,5.10
2019-03-05T07:56:04.862Z,5.20
2019-03-05T07:58:38.441Z,5.20
2019-03-05T08:01:21.855Z,5.20
2019-03-05T08:03:45.921Z,5.40
2019-03-05T08:06:18.860Z,5.50
2019-03-05T08:08:51.680Z,5.60
2019-03-05T08:11:24.661Z,5.60
2019-03-05T08:13:57.681Z,5.70
2019-03-05T08:16:30.921Z,5.70
2019-03-05T08:19:03.980Z,5.80
2019-03-05T08:21:37.401Z,5.90
2019-03-05T08:24:10.261Z,5.90
2019-03-05T08:26:43.241Z,5.80
2019-03-05T08:29:16.381Z,5.90
2019-03-05T08:31:49.482Z,5.90
2019-03-05T08:34:22.301Z,5.80
2019-03-05T08:36:55.661Z,5.90
2019-03-05T08:39:28.522Z,5.90
2019-03-05T08:42:01.382Z,5.80
2019-03-05T08:44:35.162Z,5.90
2019-03-05T08:47:08.301Z,5.60
2019-03-05T08:49:41.140Z,5.70
2019-03-05T08:52:14.362Z,5.80
2019-03-05T08:54:47.241Z,6.00
2019-03-05T08:57:20.261Z,6.20
2019-03-05T08:59:53.161Z,6.50
2019-03-05T09:02:26.104Z,6.60
2019-03-05T09:04:58.961Z,6.70
2019-03-05T09:07:32.348Z,6.70
2019-03-05T09:10:05.182Z,6.70
2019-03-05T09:12:38.162Z,6.70
2019-03-05T09:15:11.745Z,6.80
2019-03-05T09:17:44.741Z,7.00
2019-03-05T09:20:17.641Z,7.10
2019-03-05T09:22:50.564Z,7.10
2019-03-05T09:25:23.420Z,7.00
2019-03-05T09:27:56.860Z,7.10
2019-03-05T09:30:30.044Z,7.20
2019-03-05T09:33:03.005Z,7.40
2019-03-05T09:35:35.922Z,7.60
2019-03-05T09:38:08.986Z,7.60
2019-03-05T09:40:42.522Z,7.30
2019-03-05T09:43:15.781Z,7.50
2019-03-05T09:45:48.941Z,7.80
2019-03-05T09:48:21.878Z,8.10
2019-03-05T09:50:54.801Z,8.20
2019-03-05T09:53:27.806Z,8.40
2019-03-05T09:56:01.001Z,8.50
2019-03-05T09:58:34.002Z,8.70
2019-03-05T10:01:07.188Z,9.00
2019-03-05T10:03:40.161Z,8.70
2019-03-05T10:06:13.081Z,8.80
2019-03-05T10:08:46.120Z,9.10
2019-03-05T10:11:18.967Z,9.70
2019-03-05T10:13:51.960Z,10.00
2019-03-05T10:16:24.841Z,10.00
2019-03-05T10:18:57.804Z,10.20
2019-03-05T10:21:30.841Z,10.40
2019-03-05T10:24:10.441Z,10.40
2019-03-05T10:26:38.461Z,10.40
2019-03-05T10:29:11.701Z,10.50
2019-03-05T10:31:44.888Z,10.40
2019-03-05T10:34:17.881Z,10.20
2019-03-05T10:36:51.241Z,10.10
2019-03-05T10:39:30.426Z,10.50
2019-03-05T10:41:59.763Z,10.60
2019-03-05T10:44:32.761Z,10.70
2019-03-05T10:47:06.681Z,10.80
2019-03-05T10:49:42.243Z,10.60
2019-03-05T10:52:15.923Z,10.70
2019-03-05T10:54:49.184Z,10.60
2019-03-05T10:57:22.360Z,10.50
2019-03-05T10:59:55.250Z,10.50
2019-03-05T11:02:28.483Z,10.60
2019-03-05T11:05:01.881Z,10.80
2019-03-05T11:07:35.334Z,10.70
2019-03-05T11:10:08.291Z,10.90
2019-03-05T11:12:41.246Z,11.10
2019-03-05T11:15:14.068Z,10.90
2019-03-05T11:17:47.084Z,11.30
2019-03-05T11:20:20.045Z,11.40
2019-03-05T11:22:53.000Z,11.80
2019-03-05T11:25:26.821Z,12.00
2019-03-05T11:28:00.360Z,12.10
2019-03-05T11:30:36.402Z,12.10
2019-03-05T11:33:08.541Z,12.00
2019-03-05T11:35:41.641Z,11.50
2019-03-05T11:38:14.582Z,11.70
2019-03-05T11:40:47.664Z,11.70
2019-03-05T11:43:21.299Z,11.90
2019-03-05T11:45:54.281Z,11.70
2019-03-05T11:48:27.221Z,11.90
2019-03-05T11:51:00.300Z,12.00
2019-03-05T11:53:33.561Z,12.20
2019-03-05T11:56:06.503Z,12.20
2019-03-05T11:58:40.436Z,11.50
2019-03-05T12:01:19.703Z,11.30
2019-03-05T12:03:53.301Z,11.10
2019-03-05T12:06:26.320Z,11.30
2019-03-05T12:08:59.261Z,11.60
2019-03-05T12:11:32.161Z,11.50
2019-03-05T12:14:05.081Z,11.80
2019-03-05T12:16:37.921Z,11.60
2019-03-05T12:19:11.380Z,11.50
2019-03-05T12:21:44.261Z,11.40
2019-03-05T12:24:19.915Z,10.80
2019-03-05T12:26:51.721Z,10.80
2019-03-05T12:29:24.684Z,10.60
2019-03-05T12:31:57.760Z,10.40
2019-03-05T12:34:30.548Z,10.50
2019-03-05T12:37:03.422Z,10.60
2019-03-05T12:39:36.401Z,10.20
2019-03-05T12:42:12.270Z,10.10
2019-03-05T12:44:45.800Z,10.00
2019-03-05T12:47:18.721Z,10.40
2019-03-05T12:49:51.640Z,10.70
2019-03-05T12:52:24.741Z,11.30
2019-03-05T12:54:58.059Z,11.50
2019-03-05T12:57:31.159Z,11.80
2019-03-05T13:00:04.919Z,12.20
2019-03-05T13:02:37.860Z,12.20
2019-03-05T13:05:10.821Z,12.30
2019-03-05T13:07:44.001Z,12.20
2019-03-05T13:10:16.940Z,12.50
2019-03-05T13:12:49.921Z,12.50
2019-03-05T13:15:22.779Z,12.40
2019-03-05T13:17:55.625Z,12.40
2019-03-05T13:20:28.761Z,12.50
2019-03-05T13:23:08.855Z,12.90
2019-03-05T13:25:38.551Z,12.60
2019-03-05T13:28:13.380Z,12.60
2019-03-05T13:30:46.774Z,12.60
2019-03-05T13:33:19.941Z,12.80
2019-03-05T13:35:53.041Z,12.80
2019-03-05T13:38:26.661Z,12.20
2019-03-05T13:40:59.562Z,12.10
2019-03-05T13:43:33.220Z,12.00
2019-03-05T13:46:06.140Z,11.90
2019-03-05T13:48:40.062Z,12.00
2019-03-05T13:51:13.195Z,12.20
2019-03-05T13:53:46.060Z,12.40
2019-03-05T13:56:19.901Z,12.20
2019-03-05T13:58:53.581Z,12.30
2019-03-05T14:01:28.519Z,12.10
2019-03-05T14:04:02.180Z,11.80
2019-03-05T14:06:35.021Z,11.70
2019-03-05T14:09:09.883Z,11.90
2019-03-05T14:11:43.666Z,12.20
2019-03-05T14:14:16.730Z,12.20
2019-03-05T14:16:51.430Z,12.50
2019-03-05T14:19:24.637Z,12.50
2019-03-05T14:21:58.042Z,12.00
2019-03-05T14:24:31.542Z,11.70
2019-03-05T14:27:04.378Z,11.80
2019-03-05T14:29:37.430Z,11.80
2019-03-05T14:32:10.814Z,11.90
2019-03-05T14:34:44.288Z,12.00
2019-03-05T14:37:17.295Z,12.20
2019-03-05T14:39:50.229Z,11.90
2019-03-05T14:42:23.197Z,11.90
2019-03-05T14:44:56.037Z,12.10
2019-03-05T14:47:29.301Z,12.10
2019-03-05T14:50:02.352Z,12.10
2019-03-05T14:52:35.283Z,12.40
2019-03-05T14:55:08.361Z,12.80
2019-03-05T14:57:41.772Z,12.90
2019-03-05T15:00:17.361Z,12.90
2019-03-05T15:02:50.611Z,13.10
2019-03-05T15:05:23.807Z,12.90
2019-03-05T15:07:56.736Z,12.80
2019-03-05T15:10:29.955Z,12.80
2019-03-05T15:13:14.922Z,12.90
2019-03-05T15:15:37.447Z,13.00
2019-03-05T15:18:10.981Z,12.90
2019-03-05T15:20:43.921Z,12.70
2019-03-05T15:23:16.866Z,12.90
2019-03-05T15:25:49.897Z,12.80
2019-03-05T15:28:22.731Z,12.70
2019-03-05T15:30:55.824Z,12.50
2019-03-05T15:33:28.702Z,12.30
2019-03-05T15:36:02.164Z,12.10
2019-03-05T15:38:35.192Z,12.10
2019-03-05T15:41:08.501Z,11.80
2019-03-05T15:43:41.543Z,11.60
2019-03-05T15:46:14.489Z,11.40
2019-03-05T15:48:47.434Z,11.30
2019-03-05T15:51:20.821Z,11.20
2019-03-05T15:53:54.000Z,11.00
2019-03-05T15:56:27.141Z,10.80
2019-03-05T15:59:00.001Z,10.60
2019-03-05T16:01:33.468Z,10.40
2019-03-05T16:04:06.740Z,10.20
2019-03-05T16:06:39.761Z,10.30
2019-03-05T16:09:12.680Z,9.90
2019-03-05T16:11:45.841Z,9.80
2019-03-05T16:14:18.802Z,9.70
2019-03-05T16:16:52.845Z,9.70
2019-03-05T16:19:26.148Z,9.60
2019-03-05T16:21:59.041Z,9.40
2019-03-05T16:24:33.828Z,9.10
2019-03-05T16:27:07.422Z,9.10
2019-03-05T16:29:40.299Z,8.80
2019-03-05T16:32:23.117Z,8.70
2019-03-05T16:35:02.785Z,8.60
2019-03-05T16:37:42.652Z,8.40
2019-03-05T16:40:28.701Z,8.20
2019-03-05T16:43:05.900Z,8.40
2019-03-05T16:45:43.081Z,8.50
2019-03-05T16:48:17.600Z,8.20
2019-03-05T16:51:07.181Z,8.00
2019-03-05T16:53:41.541Z,7.80
2019-03-05T16:56:22.885Z,7.80
2019-03-05T16:59:02.978Z,7.50
2019-03-05T17:01:38.441Z,7.40
2019-03-05T17:04:13.100Z,7.10
2019-03-05T17:06:56.384Z,7.00
2019-03-05T17:09:44.260Z,7.00
2019-03-05T17:12:17.250Z,6.80
2019-03-05T17:14:52.523Z,6.70
2019-03-05T17:17:26.099Z,6.60
2019-03-05T17:19:59.640Z,6.50
2019-03-05T17:22:32.800Z,6.70
2019-03-05T17:25:06.259Z,6.90
2019-03-05T17:27:39.261Z,7.00
2019-03-05T17:30:12.064Z,6.80
2019-03-05T17:32:45.580Z,6.90
2019-03-05T17:35:18.641Z,6.90
2019-03-05T17:37:52.040Z,6.70
2019-03-05T17:40:25.061Z,6.70
2019-03-05T17:42:58.000Z,6.80
2019-03-05T17:45:30.920Z,6.60
2019-03-05T17:48:03.980Z,6.60
2019-03-05T17:50:37.020Z,6.40
2019-03-05T17:53:09.944Z,6.40
2019-03-05T17:55:42.920Z,6.50
2019-03-05T17:58:16.050Z,6.50
2019-03-05T18:00:50.468Z,6.60
2019-03-05T18:03:23.560Z,6.60
2019-03-05T18:05:57.142Z,6.60
2019-03-05T18:08:30.121Z,6.60
2019-03-05T18:11:03.136Z,6.20
2019-03-05T18:13:35.920Z,6.20
2019-03-05T18:16:09.324Z,6.10
2019-03-05T18:18:42.281Z,6.20
2019-03-05T18:21:18.700Z,6.20
2019-03-05T18:23:51.491Z,6.00
2019-03-05T18:26:25.703Z,6.00
2019-03-05T18:28:58.611Z,6.10
2019-03-05T18:31:31.623Z,6.20
2019-03-05T18:34:04.402Z,6.20
2019-03-05T18:36:37.373Z,6.10
2019-03-05T18:39:10.803Z,6.10
2019-03-05T18:41:44.003Z,6.20
2019-03-05T18:44:17.582Z,6.30
2019-03-05T18:46:50.393Z,6.30
2019-03-05T18:49:24.224Z,5.90
2019-03-05T18:51:57.101Z,6.00
2019-03-05T18:54:31.761Z,6.20
2019-03-05T18:57:04.681Z,6.30
2019-03-05T18:59:37.822Z,6.30
2019-03-05T19:02:10.901Z,6.30
2019-03-05T19:04:43.740Z,6.20
2019-03-05T19:07:16.802Z,6.10
2019-03-05T19:09:50.200Z,6.10
2019-03-05T19:12:23.081Z,5.90
2019-03-05T19:14:55.959Z,6.00
2019-03-05T19:17:28.962Z,6.20
2019-03-05T19:20:01.862Z,6.20
2019-03-05T19:22:34.975Z,6.00
2019-03-05T19:25:08.184Z,5.70
2019-03-05T19:27:41.343Z,5.60
2019-03-05T19:30:14.202Z,5.80
2019-03-05T19:32:47.405Z,5.90
2019-03-05T19:35:20.321Z,6.00
2019-03-05T19:37:53.363Z,6.10
2019-03-05T19:40:26.203Z,6.00
2019-03-05T19:42:59.182Z,6.00
2019-03-05T19:45:32.083Z,6.10
2019-03-05T19:48:05.182Z,6.30
2019-03-05T19:50:38.796Z,6.40
2019-03-05T19:53:11.923Z,6.40
2019-03-05T19:55:44.864Z,6.40
2019-03-05T19:58:17.663Z,6.40
2019-03-05T20:01:00.323Z,6.40
2019-03-05T20:03:33.260Z,6.50
2019-03-05T20:06:06.619Z,6.50
2019-03-05T20:08:40.536Z,6.50
2019-03-05T20:11:14.601Z,6.50
2019-03-05T20:13:47.641Z,6.50
2019-03-05T20:16:20.530Z,6.40
2019-03-05T20:18:53.460Z,6.30
2019-03-05T20:21:27.242Z,6.40
2019-03-05T20:24:00.764Z,6.40
2019-03-05T20:26:33.819Z,6.40
2019-03-05T20:29:07.460Z,6.50
2019-03-05T20:31:40.360Z,6.60
2019-03-05T20:34:13.532Z,6.00
2019-03-05T20:36:46.700Z,6.10
2019-03-05T20:39:19.700Z,6.10
2019-03-05T20:41:52.689Z,6.10
2019-03-05T20:44:26.021Z,6.10
2019-03-05T20:46:59.400Z,6.20
2019-03-05T20:49:32.384Z,6.30
2019-03-05T20:52:05.360Z,6.30
2019-03-05T20:54:38.488Z,6.20
2019-03-05T20:57:12.208Z,6.20
2019-03-05T20:59:45.161Z,6.00
2019-03-05T21:02:18.901Z,6.10
2019-03-05T21:04:51.859Z,6.20
2019-03-05T21:07:25.000Z,6.20
2019-03-05T21:09:58.002Z,6.20
2019-03-05T21:12:31.360Z,6.30
2019-03-05T21:15:04.159Z,6.40
2019-03-05T21:17:37.080Z,6.40
2019-03-05T21:20:10.059Z,6.40
2019-03-05T21:22:43.001Z,6.60
2019-03-05T21:25:15.990Z,6.60
2019-03-05T21:27:49.700Z,6.60
2019-03-05T21:30:22.680Z,6.60
2019-03-05T21:32:55.481Z,6.60
2019-03-05T21:35:28.929Z,6.40
2019-03-05T21:38:01.960Z,6.20
2019-03-05T21:40:35.109Z,6.10
2019-03-05T21:43:08.501Z,6.00
2019-03-05T21:45:41.580Z,5.80
2019-03-05T21:48:14.648Z,5.50
2019-03-05T21:50:47.639Z,5.40
2019-03-05T21:53:20.529Z,5.50
2019-03-05T21:55:53.621Z,5.40
2019-03-05T21:58:26.439Z,5.40
2019-03-05T22:00:59.500Z,5.40
2019-03-05T22:03:32.401Z,5.50
2019-03-05T22:06:05.203Z,5.50
2019-03-05T22:08:39.268Z,5.40
2019-03-05T22:11:12.282Z,5.50
2019-03-05T22:13:45.200Z,5.50
2019-03-05T22:16:18.804Z,5.60
2019-03-05T22:18:51.600Z,5.60
2019-03-05T22:21:24.860Z,5.20
2019-03-05T22:23:58.040Z,5.20
2019-03-05T22:26:31.441Z,5.20
2019-03-05T22:29:04.281Z,5.20
2019-03-05T22:31:37.261Z,5.20
2019-03-05T22:34:10.080Z,5.10
2019-03-05T22:36:43.183Z,5.20
2019-03-05T22:39:16.782Z,5.20
2019-03-05T22:41:50.561Z,5.10
2019-03-05T22:44:23.500Z,5.00
2019-03-05T22:46:57.069Z,5.10
2019-03-05T22:49:36.041Z,5.10
2019-03-05T22:52:10.361Z,5.10
2019-03-05T22:54:43.180Z,5.10
2019-03-05T22:57:16.140Z,5.20
2019-03-05T22:59:49.079Z,5.10
2019-03-05T23:02:21.994Z,5.00
2019-03-05T23:04:56.040Z,5.00
2019-03-05T23:07:29.701Z,5.10
2019-03-05T23:10:02.522Z,5.10
2019-03-05T23:12:35.562Z,5.10
2019-03-05T23:15:08.520Z,5.20
2019-03-05T23:17:41.504Z,5.00
2019-03-05T23:20:15.086Z,5.00
2019-03-05T23:22:48.949Z,5.00
2019-03-05T23:25:22.521Z,5.10
2019-03-05T23:27:55.561Z,5.20
2019-03-05T23:30:29.063Z,5.00
2019-03-05T23:33:01.989Z,4.80
2019-03-05T23:35:35.181Z,4.70
2019-03-05T23:38:08.141Z,4.70
2019-03-05T23:40:41.149Z,4.70
2019-03-05T23:43:14.601Z,4.70
2019-03-05T23:45:47.610Z,5.00
2019-03-05T23:48:20.520Z,5.40
2019-03-05T23:50:53.483Z,5.30
2019-03-05T23:53:26.480Z,5.30
2019-03-05T23:55:59.650Z,5.30
2019-03-05T23:58:32.749Z,5.30
